KHCR

Heber City Municipal - Russ McDonald Field Airport

Heber, Utah, USA
KHCR 211720Z 2118/2218 VRB04KT P6SM SKC FM212000 24013G20KT P6SM FEW100 SCT200 FM220200 VRB04KT P6SM SKC
Issued Valid From Valid To
Jun-21 @ 17:20 UTC
(47 minutes ago)
Jun-21 @ 18:00 UTC
(7 minutes ago)
Jun-22 @ 18:00 UTC
(in 24 hours)
Jun-21 @ 18:00 to Jun-21 @ 20:00
KHCR 211720Z 2118/2218 VRB04KT P6SM SKC
Wind Visibility Clouds
Variable at 4 knots Greater than 6 miles
  • Clear skies
From Jun-21 @ 20:00 to Jun-22 @ 02:00
FM212000 24013G20KT P6SM FEW100 SCT200
Wind Visibility Clouds
240° at 13 knots
 Gusting to 20 knots
Greater than 6 miles
  • Few at 10,000' AGL
  • Scattered at 20,000' AGL
From Jun-22 @ 02:00 to Jun-22 @ 18:00
FM220200 VRB04KT P6SM SKC
Wind Visibility Clouds
Variable at 4 knots Greater than 6 miles
  • Clear skies
KHCR 211720Z 2118/2218 VRB04KT P6SM SKC FM212000 24013G20KT P6SM FEW100 SCT200 FM220200 VRB04KT P6SM SKC
Issued Jun-21 @ 17:20 UTC
(47 minutes ago)
Valid From Jun-21 @ 18:00 UTC
(7 minutes ago)
Valid To Jun-22 @ 18:00 UTC
(in 24 hours)
Jun-21 @ 18:00 - Jun-21 @ 20:00
Wind Visibility
Variable at 4 knots Greater than 6 miles
Clouds
  • Clear skies
From Jun-21 @ 20:00 - Jun-22 @ 02:00
Wind Visibility
240° at 13 knots
 Gusting to 20 knots
Greater than 6 miles
Clouds
  • Few at 10,000' AGL
  • Scattered at 20,000' AGL
From Jun-22 @ 02:00 - Jun-22 @ 18:00
Wind Visibility
Variable at 4 knots Greater than 6 miles
Clouds
  • Clear skies